Time;durP1;ratioP1;P1;durP2;ratioP2;P2;SDS_P1;SDS_P2;PMS_P1;PMS_P2;Temp;Humidity;BMP_temperature;BMP_pressure;BME280_temperature;BME280_humidity;BME280_pressure;Samples;Min_cycle;Max_cycle;Signal;HPM_P1;HPM_P2
2021/08/18 00:02:22;;;;;;;0.40;0.40;;;15.70;99.90;;;;;;4385023;32;20066;-66
2021/08/18 00:04:47;;;;;;;0.60;0.60;;;15.70;99.90;;;;;;4385244;32;20054;-67
2021/08/18 00:07:12;;;;;;;0.45;0.45;;;15.60;99.90;;;;;;4384941;32;20071;-66
2021/08/18 00:09:38;;;;;;;0.40;0.40;;;15.60;99.90;;;;;;4385175;32;20067;-67
2021/08/18 00:12:04;;;;;;;1.45;0.50;;;15.60;99.90;;;;;;4384593;32;20110;-67
2021/08/18 00:14:29;;;;;;;0.28;0.28;;;15.60;99.90;;;;;;4383817;32;20082;-68
2021/08/18 00:16:55;;;;;;;0.57;0.57;;;15.60;99.90;;;;;;4384595;32;20082;-67
2021/08/18 00:19:20;;;;;;;1.65;0.82;;;15.50;99.90;;;;;;4384322;32;20114;-67
2021/08/18 00:21:46;;;;;;;1.40;0.40;;;15.50;99.90;;;;;;4384173;32;20083;-68
2021/08/18 00:24:11;;;;;;;0.37;0.37;;;15.50;99.90;;;;;;4384106;32;20071;-67
2021/08/18 00:26:37;;;;;;;0.43;0.40;;;15.50;99.90;;;;;;4384634;32;20074;-67
2021/08/18 00:29:03;;;;;;;0.40;0.40;;;15.50;99.90;;;;;;4384398;32;20066;-67
2021/08/18 00:31:30;;;;;;;0.50;0.50;;;15.50;99.90;;;;;;4384204;32;20125;-66
2021/08/18 00:33:55;;;;;;;0.30;0.30;;;15.50;99.90;;;;;;4386113;32;20058;-67
2021/08/18 00:36:21;;;;;;;0.52;0.52;;;15.50;99.90;;;;;;4398823;32;20680;-67
2021/08/18 00:38:46;;;;;;;0.70;0.40;;;15.40;99.90;;;;;;4398786;32;20075;-67
2021/08/18 00:41:12;;;;;;;0.40;0.40;;;15.40;99.90;;;;;;4399342;32;20116;-67
2021/08/18 00:43:38;;;;;;;0.30;0.30;;;15.40;99.90;;;;;;4399080;32;20453;-67
2021/08/18 00:46:04;;;;;;;0.50;0.50;;;15.40;99.90;;;;;;4400193;32;20125;-67
2021/08/18 00:48:30;;;;;;;1.27;0.73;;;15.40;99.90;;;;;;4414131;32;20054;-67
2021/08/18 00:50:55;;;;;;;1.33;0.80;;;15.40;99.90;;;;;;4414200;32;20132;-67
2021/08/18 00:53:21;;;;;;;0.98;0.68;;;15.40;99.90;;;;;;4414109;32;20118;-66
2021/08/18 00:55:46;;;;;;;0.40;0.40;;;15.40;99.90;;;;;;4414523;32;20065;-66
2021/08/18 00:58:12;;;;;;;0.55;0.55;;;15.40;99.90;;;;;;4413161;32;20066;-66
2021/08/18 01:00:38;;;;;;;0.35;0.35;;;15.40;99.90;;;;;;4412881;32;20105;-66
2021/08/18 01:03:03;;;;;;;0.60;0.60;;;15.40;99.90;;;;;;4414557;32;20515;-67
2021/08/18 01:05:30;;;;;;;0.43;0.43;;;15.40;99.90;;;;;;4414957;32;20076;-66
2021/08/18 01:07:57;;;;;;;2.60;0.60;;;15.30;99.90;;;;;;4413819;32;20524;-67
2021/08/18 01:10:26;;;;;;;0.30;0.30;;;15.20;99.90;;;;;;4414441;32;20469;-66
2021/08/18 01:12:53;;;;;;;1.08;0.50;;;15.20;99.90;;;;;;4414656;32;20587;-66
2021/08/18 01:15:22;;;;;;;4.87;0.50;;;15.20;99.90;;;;;;4413680;32;20124;-66
2021/08/18 01:17:50;;;;;;;1.95;0.95;;;15.20;99.90;;;;;;4415103;32;20233;-66
2021/08/18 01:20:21;;;;;;;0.30;0.30;;;15.20;99.90;;;;;;4414684;32;20488;-66
2021/08/18 01:22:47;;;;;;;;;;;15.20;99.90;;;;;;4415659;32;20117;-66
2021/08/18 01:25:14;;;;;;;0.28;0.28;;;15.20;99.90;;;;;;4414740;32;19956;-66
2021/08/18 01:27:47;;;;;;;0.35;0.35;;;15.20;99.90;;;;;;4414648;32;20054;-66
2021/08/18 01:30:14;;;;;;;0.20;0.20;;;15.20;99.90;;;;;;4414093;32;20575;-66
2021/08/18 01:32:42;;;;;;;3.72;0.52;;;15.30;99.90;;;;;;4413652;32;20086;-66
2021/08/18 01:35:16;;;;;;;0.50;0.50;;;15.30;99.90;;;;;;4404828;32;20054;-66
2021/08/18 01:37:42;;;;;;;0.40;0.40;;;15.30;99.90;;;;;;4398494;32;20417;-66
2021/08/18 01:40:08;;;;;;;0.50;0.50;;;15.30;99.90;;;;;;4398655;32;20062;-66
2021/08/18 01:42:33;;;;;;;0.55;0.50;;;15.30;99.90;;;;;;4399795;32;20042;-67
2021/08/18 01:44:59;;;;;;;0.30;0.30;;;15.30;99.90;;;;;;4400028;32;20128;-66
2021/08/18 01:47:24;;;;;;;0.45;0.43;;;15.30;99.90;;;;;;4388052;32;20114;-66
2021/08/18 01:49:50;;;;;;;2.25;0.50;;;15.30;99.90;;;;;;4383391;32;20087;-67
2021/08/18 01:52:17;;;;;;;0.82;0.73;;;15.30;99.90;;;;;;4391640;32;20507;-66
2021/08/18 01:54:42;;;;;;;1.10;0.77;;;15.30;99.90;;;;;;4398717;32;20058;-66
2021/08/18 01:57:08;;;;;;;1.77;0.47;;;15.30;99.90;;;;;;4398310;32;20070;-66
2021/08/18 01:59:33;;;;;;;0.82;0.50;;;15.20;99.90;;;;;;4399729;32;20511;-66
2021/08/18 02:01:58;;;;;;;0.50;0.50;;;15.20;99.90;;;;;;4397995;32;20055;-66
2021/08/18 02:04:24;;;;;;;1.12;0.90;;;15.20;99.90;;;;;;4401235;32;20079;-66
2021/08/18 02:06:49;;;;;;;3.78;0.70;;;15.10;99.90;;;;;;4400670;32;20125;-67
2021/08/18 02:09:15;;;;;;;0.50;0.50;;;15.10;99.90;;;;;;4401376;32;20069;-66
2021/08/18 02:11:40;;;;;;;0.70;0.37;;;15.00;99.90;;;;;;4402238;32;20066;-66
2021/08/18 02:14:06;;;;;;;0.60;0.60;;;15.00;99.90;;;;;;4401545;32;20061;-67
2021/08/18 02:16:31;;;;;;;0.50;0.50;;;15.00;99.90;;;;;;4400798;32;20116;-67
2021/08/18 02:18:57;;;;;;;0.30;0.30;;;15.10;99.90;;;;;;4400838;32;20574;-66
2021/08/18 02:21:22;;;;;;;0.60;0.60;;;15.00;99.90;;;;;;4400735;32;20062;-66
2021/08/18 02:23:48;;;;;;;0.73;0.73;;;15.00;99.90;;;;;;4401071;32;20291;-66
2021/08/18 02:26:13;;;;;;;0.40;0.40;;;15.10;99.90;;;;;;4401474;32;20070;-67
2021/08/18 02:28:39;;;;;;;0.88;0.88;;;15.10;99.90;;;;;;4401942;32;20532;-68
2021/08/18 02:31:04;;;;;;;1.48;0.60;;;15.10;99.90;;;;;;4401440;32;20125;-67
2021/08/18 02:33:30;;;;;;;0.50;0.50;;;15.00;99.90;;;;;;4401894;32;20074;-67
2021/08/18 02:35:55;;;;;;;0.30;0.30;;;15.00;99.90;;;;;;4387018;32;20066;-66
2021/08/18 02:38:21;;;;;;;0.40;0.40;;;15.00;99.90;;;;;;4385767;32;20139;-66
2021/08/18 02:40:46;;;;;;;3.20;0.95;;;15.00;99.90;;;;;;4385933;32;20063;-66
2021/08/18 02:43:12;;;;;;;0.50;0.50;;;15.00;99.90;;;;;;4385486;32;20086;-66
2021/08/18 02:45:37;;;;;;;0.50;0.50;;;15.00;99.90;;;;;;4385200;32;20087;-66
2021/08/18 02:48:03;;;;;;;3.55;0.52;;;14.90;99.90;;;;;;4385105;32;20054;-66
2021/08/18 02:50:31;;;;;;;0.40;0.40;;;14.90;99.90;;;;;;4385578;32;20083;-66
2021/08/18 02:52:57;;;;;;;6.53;1.40;;;14.90;99.90;;;;;;4386182;32;20505;-66
2021/08/18 02:55:23;;;;;;;1.10;0.80;;;14.90;99.90;;;;;;4385153;32;20512;-66
2021/08/18 02:57:48;;;;;;;0.43;0.43;;;15.00;99.90;;;;;;4385049;32;20062;-66
2021/08/18 03:00:14;;;;;;;0.40;0.40;;;14.90;99.90;;;;;;4385140;32;20079;-67
2021/08/18 03:02:39;;;;;;;0.98;0.60;;;14.90;99.90;;;;;;4384997;32;20073;-67
2021/08/18 03:05:06;;;;;;;0.45;0.45;;;15.00;99.90;;;;;;4385746;32;20054;-66
2021/08/18 03:07:31;;;;;;;0.60;0.60;;;15.00;99.90;;;;;;4386227;32;20414;-66
2021/08/18 03:09:56;;;;;;;0.43;0.43;;;15.10;99.90;;;;;;4385558;32;20066;-66
2021/08/18 03:12:22;;;;;;;1.48;0.60;;;15.00;99.90;;;;;;4385057;32;20410;-66
2021/08/18 03:14:48;;;;;;;0.60;0.60;;;15.00;99.90;;;;;;4385057;32;20121;-66
2021/08/18 03:17:13;;;;;;;1.25;0.70;;;14.90;99.90;;;;;;4385582;32;20133;-66
2021/08/18 03:19:39;;;;;;;0.50;0.50;;;14.90;99.90;;;;;;4385521;32;20079;-66
2021/08/18 03:22:05;;;;;;;0.30;0.30;;;14.90;99.90;;;;;;4385417;32;20508;-66
2021/08/18 03:24:31;;;;;;;0.40;0.40;;;14.90;99.90;;;;;;4386622;32;20065;-67
2021/08/18 03:26:56;;;;;;;0.57;0.57;;;14.90;99.90;;;;;;4385381;32;20058;-67
2021/08/18 03:29:21;;;;;;;0.50;0.50;;;14.80;99.90;;;;;;4385812;32;20066;-67
2021/08/18 03:31:47;;;;;;;0.20;0.20;;;14.80;99.90;;;;;;4384940;32;20468;-67
2021/08/18 03:34:12;;;;;;;1.45;0.60;;;14.80;99.90;;;;;;4384882;32;20066;-66
2021/08/18 03:36:38;;;;;;;0.40;0.40;;;14.80;99.90;;;;;;4386280;32;20178;-67
2021/08/18 03:39:03;;;;;;;0.43;0.43;;;14.80;99.90;;;;;;4384558;32;20074;-67
2021/08/18 03:41:29;;;;;;;0.80;0.80;;;14.80;99.90;;;;;;4386252;32;20118;-67
2021/08/18 03:43:54;;;;;;;0.30;0.30;;;14.80;99.90;;;;;;4384693;32;20062;-66
2021/08/18 03:46:20;;;;;;;2.58;0.93;;;14.90;99.90;;;;;;4381343;32;20079;-67
2021/08/18 03:48:45;;;;;;;0.75;0.52;;;14.80;99.90;;;;;;4369875;32;20560;-67
2021/08/18 03:51:11;;;;;;;0.30;0.30;;;14.70;99.90;;;;;;4370773;32;20078;-67
2021/08/18 03:53:36;;;;;;;0.40;0.40;;;14.80;99.90;;;;;;4370281;32;20062;-67
2021/08/18 03:56:02;;;;;;;0.47;0.47;;;14.80;99.90;;;;;;4370524;32;20067;-67
2021/08/18 03:58:27;;;;;;;0.30;0.30;;;14.80;99.90;;;;;;4370301;32;20074;-66
2021/08/18 04:00:53;;;;;;;1.17;0.55;;;14.70;99.90;;;;;;4369920;32;20079;-67
2021/08/18 04:03:19;;;;;;;0.43;0.43;;;14.70;99.90;;;;;;4369488;32;20058;-67
2021/08/18 04:05:44;;;;;;;0.57;0.50;;;14.70;99.90;;;;;;4370817;32;20131;-67
2021/08/18 04:08:11;;;;;;;0.88;0.45;;;14.70;99.90;;;;;;4369818;32;20076;-67
2021/08/18 04:10:37;;;;;;;0.30;0.30;;;14.70;99.90;;;;;;4369413;32;20067;-67
2021/08/18 04:13:02;;;;;;;0.70;0.70;;;14.70;99.90;;;;;;4369551;32;20077;-67
2021/08/18 04:15:34;;;;;;;0.30;0.30;;;14.70;99.90;;;;;;4369036;32;20071;-67
2021/08/18 04:17:59;;;;;;;3.60;0.50;;;14.70;99.90;;;;;;4370560;32;20079;-68
2021/08/18 04:20:25;;;;;;;0.60;0.60;;;14.70;99.90;;;;;;4369817;32;20059;-66
2021/08/18 04:22:50;;;;;;;0.40;0.40;;;14.70;99.90;;;;;;4384463;32;20093;-66
2021/08/18 04:25:17;;;;;;;0.52;0.52;;;14.80;99.90;;;;;;4394928;32;20058;-66
2021/08/18 04:27:43;;;;;;;1.00;0.60;;;14.80;99.90;;;;;;4393743;32;20078;-67
2021/08/18 04:30:11;;;;;;;0.40;0.40;;;14.80;99.90;;;;;;4384024;32;20071;-67
2021/08/18 04:32:37;;;;;;;0.75;0.60;;;14.80;99.90;;;;;;4384155;32;20062;-67
2021/08/18 04:35:06;;;;;;;0.40;0.40;;;14.80;99.90;;;;;;4392769;32;20062;-67
2021/08/18 04:37:32;;;;;;;0.35;0.35;;;14.80;99.90;;;;;;4398787;32;20070;-67
2021/08/18 04:39:57;;;;;;;0.28;0.28;;;14.80;99.90;;;;;;4389829;32;20059;-67
2021/08/18 04:42:23;;;;;;;1.83;0.50;;;14.80;99.90;;;;;;4370077;32;20071;-67
2021/08/18 04:44:48;;;;;;;0.32;0.32;;;14.80;99.90;;;;;;4368749;32;20063;-67
2021/08/18 04:47:14;;;;;;;0.32;0.32;;;14.80;99.90;;;;;;4368735;32;20103;-67
2021/08/18 04:49:39;;;;;;;0.80;0.62;;;14.80;99.90;;;;;;4369255;32;20121;-67
2021/08/18 04:52:05;;;;;;;0.55;0.55;;;14.70;99.90;;;;;;4369480;32;20503;-68
2021/08/18 04:54:31;;;;;;;0.30;0.30;;;14.70;99.90;;;;;;4393987;32;20460;-67
2021/08/18 04:56:56;;;;;;;0.68;0.68;;;14.70;99.90;;;;;;4414134;32;20074;-67
2021/08/18 04:59:22;;;;;;;0.30;0.30;;;14.70;99.90;;;;;;4406951;32;20107;-67
2021/08/18 05:01:47;;;;;;;2.72;0.45;;;14.70;99.90;;;;;;4396148;32;20077;-67
2021/08/18 05:04:13;;;;;;;0.30;0.30;;;14.60;99.90;;;;;;4359878;32;20486;-67
2021/08/18 05:06:38;;;;;;;0.40;0.40;;;14.60;99.90;;;;;;4382816;32;20150;-67
2021/08/18 05:09:04;;;;;;;1.05;0.77;;;14.60;99.90;;;;;;4397239;32;20055;-67
2021/08/18 05:11:29;;;;;;;0.30;0.30;;;14.60;99.90;;;;;;4386395;32;20069;-68
2021/08/18 05:13:55;;;;;;;0.40;0.40;;;14.50;99.90;;;;;;4396572;32;20117;-67
2021/08/18 05:16:20;;;;;;;0.68;0.57;;;14.50;99.90;;;;;;4389473;32;20070;-66
2021/08/18 05:18:46;;;;;;;0.70;0.70;;;14.60;99.90;;;;;;4375459;32;20065;-67
2021/08/18 05:21:11;;;;;;;4.72;0.70;;;14.70;99.90;;;;;;4393023;32;20074;-67
2021/08/18 05:23:37;;;;;;;0.40;0.40;;;14.70;99.90;;;;;;4388428;32;20066;-67
2021/08/18 05:26:03;;;;;;;0.40;0.40;;;14.70;99.90;;;;;;4371090;32;20406;-67
2021/08/18 05:28:29;;;;;;;0.55;0.55;;;14.70;99.90;;;;;;4372274;32;20114;-67
2021/08/18 05:30:54;;;;;;;0.75;0.50;;;14.70;99.90;;;;;;4366408;32;20077;-66
2021/08/18 05:33:20;;;;;;;0.40;0.40;;;14.80;99.90;;;;;;4377069;32;20058;-66
2021/08/18 05:35:45;;;;;;;1.30;0.43;;;14.90;99.90;;;;;;4389451;32;20059;-67
2021/08/18 05:38:11;;;;;;;0.57;0.57;;;15.00;99.90;;;;;;4385261;32;20452;-67
2021/08/18 05:40:36;;;;;;;0.52;0.52;;;15.00;99.90;;;;;;4366583;32;20391;-67
2021/08/18 05:43:02;;;;;;;0.70;0.50;;;15.10;99.90;;;;;;4379744;32;20090;-66
2021/08/18 05:45:28;;;;;;;0.40;0.40;;;15.00;99.90;;;;;;4382891;32;20125;-66
2021/08/18 05:47:54;;;;;;;2.12;0.88;;;15.10;99.90;;;;;;4368046;32;20087;-67
2021/08/18 05:50:20;;;;;;;0.45;0.45;;;15.20;99.90;;;;;;4378671;32;20078;-67
2021/08/18 05:52:45;;;;;;;0.40;0.40;;;15.30;99.90;;;;;;4382976;32;20066;-67
2021/08/18 05:55:11;;;;;;;0.80;0.80;;;15.30;99.90;;;;;;4365187;32;20815;-66
2021/08/18 05:57:36;;;;;;;0.45;0.45;;;15.30;99.90;;;;;;4380595;32;20050;-67
2021/08/18 06:00:04;;;;;;;0.22;0.22;;;15.40;99.90;;;;;;4375771;32;20086;-66
2021/08/18 06:02:29;;;;;;;0.30;0.30;;;15.40;99.90;;;;;;4362188;32;20067;-66
2021/08/18 06:04:55;;;;;;;0.30;0.30;;;15.40;99.90;;;;;;4376812;32;20070;-66
2021/08/18 06:07:20;;;;;;;0.40;0.40;;;15.50;99.90;;;;;;4381180;32;20571;-66
2021/08/18 06:09:46;;;;;;;0.30;0.30;;;15.50;99.90;;;;;;4358771;32;20090;-66
2021/08/18 06:12:11;;;;;;;1.08;0.50;;;15.50;99.90;;;;;;4381405;32;20091;-66
2021/08/18 06:14:37;;;;;;;1.65;0.62;;;15.40;99.90;;;;;;4393547;32;20084;-65
2021/08/18 06:17:03;;;;;;;0.40;0.40;;;15.40;99.90;;;;;;4389223;32;20074;-67
2021/08/18 06:19:28;;;;;;;0.40;0.40;;;15.40;99.90;;;;;;4394789;32;20101;-66
2021/08/18 06:21:54;;;;;;;0.62;0.62;;;15.30;99.90;;;;;;4387444;32;100855;-66
2021/08/18 06:24:28;;;;;;;0.35;0.35;;;15.30;99.90;;;;;;4374524;32;20075;-66
2021/08/18 06:26:55;;;;;;;0.30;0.30;;;15.30;99.90;;;;;;4361939;32;20446;-66
2021/08/18 06:29:21;;;;;;;1.48;1.20;;;15.30;99.90;;;;;;4400931;32;20094;-66
2021/08/18 06:31:47;;;;;;;0.40;0.40;;;15.30;99.90;;;;;;4381434;32;20134;-66
2021/08/18 06:34:13;;;;;;;0.50;0.50;;;15.30;99.90;;;;;;4372534;32;20194;-66
2021/08/18 06:36:40;;;;;;;0.40;0.40;;;15.40;99.90;;;;;;4385740;32;20090;-65
2021/08/18 06:39:05;;;;;;;2.95;0.50;;;15.50;99.90;;;;;;4366919;32;20069;-66
2021/08/18 06:41:31;;;;;;;0.70;0.70;;;15.50;99.90;;;;;;4374157;32;20508;-66
2021/08/18 06:43:56;;;;;;;0.50;0.50;;;15.60;99.90;;;;;;4390544;32;20128;-66
2021/08/18 06:46:22;;;;;;;0.30;0.30;;;15.60;99.90;;;;;;4393893;32;20618;-66
2021/08/18 06:48:47;;;;;;;0.22;0.22;;;15.60;99.90;;;;;;4387418;32;20373;-66
2021/08/18 06:51:16;;;;;;;0.40;0.40;;;15.70;99.90;;;;;;4386978;32;20075;-66
2021/08/18 06:53:43;;;;;;;0.30;0.30;;;15.70;99.90;;;;;;4384320;32;20058;-66
2021/08/18 06:56:09;;;;;;;0.45;0.45;;;15.70;99.90;;;;;;4379125;32;20508;-65
2021/08/18 06:58:37;;;;;;;0.30;0.30;;;15.80;99.90;;;;;;4396330;32;20139;-66
2021/08/18 07:01:02;;;;;;;0.43;0.43;;;15.90;99.90;;;;;;4375945;32;20560;-66
2021/08/18 07:03:28;;;;;;;1.83;0.70;;;16.00;99.90;;;;;;4380646;32;20137;-67
2021/08/18 07:05:53;;;;;;;0.20;0.20;;;16.00;99.90;;;;;;4391571;32;20542;-67
2021/08/18 07:08:19;;;;;;;0.35;0.35;;;16.20;99.90;;;;;;4380721;32;20070;-67
2021/08/18 07:10:44;;;;;;;0.35;0.35;;;16.20;99.90;;;;;;4381645;32;20077;-66
2021/08/18 07:13:10;;;;;;;0.30;0.30;;;16.40;99.90;;;;;;4387453;32;20532;-66
2021/08/18 07:15:35;;;;;;;0.45;0.45;;;16.40;99.90;;;;;;4378204;32;20078;-66
2021/08/18 07:18:02;;;;;;;10.27;0.40;;;16.40;99.90;;;;;;4383789;32;20066;-66
2021/08/18 07:20:28;;;;;;;0.30;0.30;;;16.40;99.90;;;;;;4378450;32;20117;-65
2021/08/18 07:22:53;;;;;;;1.45;0.35;;;16.50;99.90;;;;;;4373723;32;20187;-66
2021/08/18 07:25:19;;;;;;;0.55;0.47;;;16.60;99.90;;;;;;4383992;32;20421;-65
2021/08/18 07:27:44;;;;;;;3.47;1.37;;;16.70;99.90;;;;;;4384765;32;20106;-65
2021/08/18 07:30:11;;;;;;;0.30;0.30;;;16.80;99.90;;;;;;4381196;32;20139;-66
2021/08/18 07:32:37;;;;;;;0.30;0.30;;;16.80;99.90;;;;;;4383878;32;20082;-66
2021/08/18 07:35:04;;;;;;;1.00;0.85;;;16.80;99.90;;;;;;4366899;32;20204;-66
2021/08/18 07:37:30;;;;;;;0.37;0.37;;;16.90;99.90;;;;;;4352854;32;20127;-66
2021/08/18 07:39:56;;;;;;;0.30;0.30;;;16.90;99.90;;;;;;4376466;32;20121;-66
2021/08/18 07:42:21;;;;;;;0.30;0.30;;;16.90;99.90;;;;;;4377675;32;20171;-65
2021/08/18 07:44:47;;;;;;;0.32;0.32;;;17.00;99.90;;;;;;4384679;32;20607;-66
2021/08/18 07:47:12;;;;;;;0.30;0.30;;;17.00;99.90;;;;;;4368112;32;20074;-67
2021/08/18 07:49:38;;;;;;;0.20;0.20;;;17.00;99.90;;;;;;4377844;32;20090;-66
2021/08/18 07:52:05;;;;;;;1.77;0.75;;;17.00;99.90;;;;;;4371613;32;20079;-66
2021/08/18 07:54:31;;;;;;;0.50;0.50;;;16.90;99.90;;;;;;4382525;32;20086;-66
2021/08/18 07:56:56;;;;;;;0.32;0.32;;;16.90;99.90;;;;;;4380732;32;20558;-66
2021/08/18 07:59:21;;;;;;;0.30;0.30;;;16.90;99.90;;;;;;4375015;32;20082;-66
2021/08/18 08:01:48;;;;;;;4.03;2.17;;;16.90;99.90;;;;;;4379944;32;20079;-66
2021/08/18 08:04:13;;;;;;;1.30;0.47;;;17.00;99.90;;;;;;4368819;32;20066;-66
2021/08/18 08:06:39;;;;;;;0.30;0.30;;;17.00;99.90;;;;;;4372809;32;20087;-66
2021/08/18 08:09:05;;;;;;;0.30;0.30;;;17.20;99.90;;;;;;4367580;32;20146;-67
2021/08/18 08:11:32;;;;;;;0.30;0.30;;;17.50;99.90;;;;;;4357961;32;20612;-66
2021/08/18 08:13:58;;;;;;;0.30;0.30;;;17.70;99.90;;;;;;4379553;32;20182;-67
2021/08/18 08:16:24;;;;;;;0.40;0.40;;;17.80;99.90;;;;;;4361205;32;20079;-67
2021/08/18 08:18:49;;;;;;;0.30;0.30;;;18.10;99.90;;;;;;4371152;32;20067;-65
2021/08/18 08:21:14;;;;;;;0.30;0.30;;;18.20;99.90;;;;;;4363400;32;20100;-65
2021/08/18 08:23:41;;;;;;;0.40;0.40;;;18.10;99.90;;;;;;4354410;32;20583;-66
2021/08/18 08:26:07;;;;;;;0.20;0.20;;;17.90;99.90;;;;;;4390572;32;20086;-66
2021/08/18 08:28:33;;;;;;;0.45;0.45;;;17.70;99.90;;;;;;4377957;32;20461;-65
2021/08/18 08:30:59;;;;;;;0.52;0.52;;;17.60;99.90;;;;;;4373420;32;20086;-66
2021/08/18 08:33:24;;;;;;;0.30;0.30;;;17.60;99.90;;;;;;4380623;32;20451;-65
2021/08/18 08:35:50;;;;;;;0.40;0.40;;;17.60;99.90;;;;;;4387812;32;20070;-65
2021/08/18 08:38:16;;;;;;;0.32;0.32;;;17.70;99.90;;;;;;4368063;32;20168;-64
2021/08/18 08:40:44;;;;;;;0.35;0.35;;;17.80;99.90;;;;;;4354331;32;20150;-65
2021/08/18 08:43:12;;;;;;;0.57;0.57;;;17.80;99.90;;;;;;4361579;32;20191;-65
2021/08/18 08:45:39;;;;;;;0.40;0.40;;;17.80;99.90;;;;;;4371130;32;20622;-64
2021/08/18 08:48:06;;;;;;;0.60;0.60;;;17.90;99.90;;;;;;4378473;32;20169;-64
2021/08/18 08:50:33;;;;;;;0.90;0.65;;;17.90;99.90;;;;;;4374584;32;20086;-65
2021/08/18 08:52:58;;;;;;;0.30;0.30;;;17.80;99.90;;;;;;4378177;32;20113;-62
2021/08/18 08:55:25;;;;;;;0.40;0.40;;;17.90;99.90;;;;;;4374535;32;20153;-62
2021/08/18 08:57:54;;;;;;;0.50;0.50;;;17.90;99.90;;;;;;4376715;32;20125;-62
2021/08/18 09:00:21;;;;;;;0.20;0.20;;;17.90;99.90;;;;;;4364506;32;20213;-63
2021/08/18 09:02:47;;;;;;;2.53;0.40;;;17.90;99.90;;;;;;4368850;32;20541;-64
2021/08/18 09:05:26;;;;;;;1.05;0.73;;;17.90;99.90;;;;;;4369711;32;20105;-62
2021/08/18 09:07:59;;;;;;;0.30;0.30;;;17.90;99.90;;;;;;4362412;32;20372;-62
2021/08/18 09:10:26;;;;;;;0.40;0.40;;;17.90;99.90;;;;;;4362943;32;20067;-63
2021/08/18 09:13:07;;;;;;;0.37;0.37;;;18.00;99.90;;;;;;4375288;32;20074;-64
2021/08/18 09:15:32;;;;;;;0.30;0.30;;;17.90;99.90;;;;;;4382330;32;20655;-62
2021/08/18 09:17:58;;;;;;;0.98;0.60;;;17.90;99.90;;;;;;4377353;32;20463;-64
2021/08/18 09:20:28;;;;;;;1.02;0.50;;;17.80;99.90;;;;;;4372047;32;20471;-66
2021/08/18 09:22:56;;;;;;;0.40;0.40;;;17.70;99.90;;;;;;4374170;32;20082;-66
2021/08/18 09:25:27;;;;;;;0.35;0.35;;;17.60;99.90;;;;;;4376948;32;20377;-64
2021/08/18 09:28:04;;;;;;;0.40;0.40;;;17.50;99.90;;;;;;4368933;32;20457;-63
2021/08/18 09:30:34;;;;;;;0.50;0.50;;;17.50;99.90;;;;;;4408234;27;20156;-73
2021/08/18 09:33:06;;;;;;;0.25;0.25;;;17.50;99.90;;;;;;4418212;32;20529;-76
2021/08/18 09:35:31;;;;;;;0.43;0.43;;;17.50;99.90;;;;;;4416636;32;20116;-76
2021/08/18 09:38:07;;;;;;;0.55;0.55;;;17.40;99.90;;;;;;4420300;32;20338;-76
2021/08/18 09:40:36;;;;;;;0.30;0.30;;;17.40;99.90;;;;;;4413707;32;20082;-76
2021/08/18 09:43:25;;;;;;;0.20;0.20;;;17.40;99.90;;;;;;4416429;32;20082;-76
2021/08/18 09:46:00;;;;;;;0.50;0.50;;;17.40;99.90;;;;;;4408574;32;20144;-76
2021/08/18 09:48:28;;;;;;;0.30;0.30;;;17.50;99.90;;;;;;4411962;32;20070;-76
2021/08/18 09:50:57;;;;;;;0.40;0.40;;;17.70;99.90;;;;;;4420469;32;20066;-76
2021/08/18 09:53:27;;;;;;;0.30;0.30;;;17.80;99.90;;;;;;4415635;32;20124;-76
2021/08/18 09:56:11;;;;;;;0.40;0.40;;;17.90;99.90;;;;;;4419315;32;20085;-76
2021/08/18 09:58:39;;;;;;;0.30;0.30;;;18.10;99.90;;;;;;4420162;32;20085;-76
2021/08/18 10:01:09;;;;;;;0.30;0.30;;;18.50;99.90;;;;;;4420590;32;20494;-76
2021/08/18 10:03:36;;;;;;;0.55;0.52;;;18.80;99.90;;;;;;4418864;32;20511;-77
2021/08/18 10:06:02;;;;;;;0.30;0.30;;;18.90;99.90;;;;;;4424424;32;20077;-77
2021/08/18 10:08:29;;;;;;;0.22;0.22;;;19.10;99.90;;;;;;4421433;32;20166;-76
2021/08/18 10:10:55;;;;;;;0.40;0.40;;;19.00;99.90;;;;;;4420464;32;20078;-76
2021/08/18 10:13:22;;;;;;;0.32;0.32;;;19.10;99.90;;;;;;4420782;32;20159;-76
2021/08/18 10:15:48;;;;;;;0.30;0.30;;;19.20;99.90;;;;;;4425044;32;20065;-76
2021/08/18 10:18:26;;;;;;;0.20;0.20;;;19.50;99.90;;;;;;4431346;27;20113;-65
2021/08/18 10:20:56;;;;;;;0.32;0.32;;;19.80;99.90;;;;;;4408793;32;20121;-64
2021/08/18 10:23:41;;;;;;;0.20;0.20;;;20.10;99.90;;;;;;4411802;32;20089;-63
2021/08/18 10:26:06;;;;;;;0.30;0.30;;;20.50;99.90;;;;;;4392069;32;20147;-64
2021/08/18 10:29:13;;;;;;;1.25;0.40;;;20.90;99.90;;;;;;4415125;32;20117;-64
2021/08/18 10:31:45;;;;;;;0.30;0.30;;;21.10;99.90;;;;;;4406263;32;20089;-63
2021/08/18 10:34:33;;;;;;;0.30;0.30;;;21.10;99.90;;;;;;4402960;32;20357;-63
2021/08/18 10:37:01;;;;;;;1.25;0.40;;;21.10;99.90;;;;;;4375598;32;20133;-65
2021/08/18 10:39:52;;;;;;;0.35;0.35;;;21.20;99.90;;;;;;4408906;32;20065;-64
2021/08/18 10:42:32;;;;;;;0.20;0.20;;;21.40;99.90;;;;;;4401792;32;20212;-64
2021/08/18 10:44:58;;;;;;;0.20;0.20;;;21.10;99.90;;;;;;4386834;32;20472;-64
2021/08/18 10:47:33;;;;;;;0.30;0.30;;;21.40;99.90;;;;;;4386013;32;20061;-64
2021/08/18 10:50:16;;;;;;;0.25;0.25;;;21.90;99.90;;;;;;4405054;32;20091;-65
2021/08/18 10:52:44;;;;;;;0.32;0.32;;;22.10;99.20;;;;;;4405615;32;20095;-65
2021/08/18 10:55:13;;;;;;;0.30;0.30;;;22.50;98.10;;;;;;4403250;32;20106;-63
2021/08/18 10:57:45;;;;;;;0.28;0.28;;;22.40;96.50;;;;;;4389926;32;20433;-65
2021/08/18 11:00:32;;;;;;;0.40;0.40;;;22.20;97.40;;;;;;4391360;32;20216;-64
2021/08/18 11:03:01;;;;;;;0.30;0.30;;;22.20;97.20;;;;;;4394618;32;20082;-64
2021/08/18 11:05:42;;;;;;;0.20;0.20;;;21.90;98.10;;;;;;4394808;32;20085;-64
2021/08/18 11:08:12;;;;;;;0.20;0.20;;;21.90;97.70;;;;;;4398125;32;20458;-63
2021/08/18 11:10:41;;;;;;;2.80;0.75;;;21.60;97.20;;;;;;4408147;32;20125;-63
2021/08/18 11:13:10;;;;;;;0.30;0.30;;;21.40;98.00;;;;;;4405868;32;20486;-63
2021/08/18 11:15:46;;;;;;;0.20;0.20;;;21.10;97.90;;;;;;4382470;32;20093;-64
2021/08/18 11:18:15;;;;;;;0.15;0.15;;;21.00;98.60;;;;;;4406423;32;20114;-63
2021/08/18 11:20:46;;;;;;;0.30;0.30;;;20.90;98.70;;;;;;4394498;32;20086;-63
2021/08/18 11:23:13;;;;;;;0.43;0.32;;;20.80;98.50;;;;;;4397123;32;20414;-64
2021/08/18 11:25:44;;;;;;;1.65;0.40;;;20.80;98.80;;;;;;4395932;32;20065;-64
2021/08/18 11:28:27;;;;;;;0.30;0.30;;;20.90;98.40;;;;;;4393910;32;20442;-64
2021/08/18 11:31:06;;;;;;;0.25;0.25;;;20.80;98.30;;;;;;4405858;32;20066;-63
2021/08/18 11:33:33;;;;;;;0.20;0.20;;;20.80;98.80;;;;;;4394535;32;20086;-63
2021/08/18 11:36:01;;;;;;;0.20;0.20;;;20.60;98.70;;;;;;4406854;32;20073;-63
2021/08/18 11:38:27;;;;;;;0.20;0.20;;;20.70;99.10;;;;;;4394876;32;20065;-64
2021/08/18 11:40:54;;;;;;;2.42;0.85;;;20.50;98.60;;;;;;4393207;32;20069;-64
2021/08/18 11:43:38;;;;;;;0.20;0.20;;;20.30;98.40;;;;;;4404337;32;20077;-64
2021/08/18 11:46:03;;;;;;;0.35;0.35;;;20.10;98.60;;;;;;4403229;32;20089;-64
2021/08/18 11:48:29;;;;;;;3.20;0.68;;;20.10;98.80;;;;;;4400806;32;20173;-65
2021/08/18 11:50:57;;;;;;;0.20;0.20;;;20.00;99.00;;;;;;4402164;32;20123;-64
2021/08/18 11:53:22;;;;;;;0.68;0.50;;;20.00;98.80;;;;;;4388849;32;20078;-64
2021/08/18 11:55:58;;;;;;;0.20;0.20;;;20.10;98.90;;;;;;4396498;32;20506;-64
2021/08/18 11:58:31;;;;;;;0.20;0.20;;;20.20;99.20;;;;;;4389018;32;20074;-65
2021/08/18 12:00:58;;;;;;;0.30;0.30;;;20.20;98.80;;;;;;4402866;32;20093;-65
2021/08/18 12:03:24;;;;;;;0.40;0.40;;;20.20;98.70;;;;;;4398402;32;20114;-64
2021/08/18 12:05:57;;;;;;;0.30;0.30;;;20.00;98.90;;;;;;4373569;32;20089;-65
2021/08/18 12:08:35;;;;;;;0.20;0.20;;;20.00;99.50;;;;;;4401826;32;20121;-65
2021/08/18 12:11:00;;;;;;;0.32;0.32;;;19.90;99.70;;;;;;4391289;32;20102;-65
2021/08/18 12:13:38;;;;;;;0.40;0.40;;;19.80;99.70;;;;;;4402984;32;20522;-65
2021/08/18 12:16:04;;;;;;;0.30;0.30;;;19.70;99.90;;;;;;4402147;32;20476;-65
2021/08/18 12:18:32;;;;;;;0.30;0.30;;;19.50;99.90;;;;;;4402650;32;20172;-65
2021/08/18 12:21:19;;;;;;;0.30;0.30;;;19.50;99.90;;;;;;4405054;32;20078;-65
2021/08/18 12:23:46;;;;;;;0.50;0.50;;;19.50;99.90;;;;;;4394625;32;20074;-65
2021/08/18 12:26:30;;;;;;;0.30;0.30;;;19.40;99.90;;;;;;4404560;32;20085;-65
2021/08/18 12:28:58;;;;;;;0.28;0.28;;;19.50;99.90;;;;;;4403219;32;20323;-65
2021/08/18 12:31:24;;;;;;;0.30;0.30;;;19.40;99.90;;;;;;4390503;32;20085;-65
2021/08/18 12:34:07;;;;;;;0.20;0.20;;;19.70;99.90;;;;;;4405560;32;20081;-65
2021/08/18 12:36:33;;;;;;;0.30;0.30;;;19.90;99.90;;;;;;4392913;32;20114;-65
2021/08/18 12:39:00;;;;;;;0.62;0.40;;;20.00;99.90;;;;;;4405452;32;20495;-66
2021/08/18 12:41:27;;;;;;;0.30;0.30;;;19.90;99.90;;;;;;4401063;32;20109;-65
2021/08/18 12:44:12;;;;;;;0.37;0.37;;;19.90;99.90;;;;;;4402459;32;20090;-65
2021/08/18 12:46:39;;;;;;;0.30;0.30;;;19.80;99.90;;;;;;4390744;32;20144;-65
2021/08/18 12:49:26;;;;;;;0.30;0.30;;;19.70;99.90;;;;;;4403899;32;20078;-65
2021/08/18 12:51:52;;;;;;;0.30;0.30;;;19.50;99.90;;;;;;4396792;32;20069;-65